Impacts TAF Board INFO
FOR SITUATIONAL AWARENESS. NOT TO BE USED FOR FLIGHT PLANNING PURPOSES.
IDs:

KATL - Atlanta/Hartsfield-J, GA, US

Issued at 1123 UTC 20 Jan 2018
Updated at 1259 UTC 20 Jan 2018
Potential Impact None Slight Moderate High
Time1252Z 20/13Z 20/14Z 20/15Z 20/16Z 20/17Z 20/18Z 20/19Z 20/20Z 20/21Z 20/22Z 20/23Z 21/00Z 21/01Z>>
Type OBS PRVL PRVL PRVL PRVL PRVL PRVL PRVL PRVL PRVL PRVL PRVL PRVL PRVL
VIS 10 >6 >6 >6 >6 >6 >6 >6 >6 >6 >6 >6 >6 >6
CIG 34 35 35 35 -- -- -- -- -- -- -- -- -- --
Cover BKN BKN BKN BKN SCT SCT SCT SCT SCT SCT SCT SCT SCT SCT
FltCat VFR VFR VFR VFR VFR VFR VFR VFR VFR VFR VFR VFR VFR VFR
WX -- -- -- -- -- -- -- -- -- -- -- -- -- --
WDir 250 290 290 290 300 300 300 300 300 300 300 300 300 300
WSpd 4 6 6 6 7 7 7 7 7 7 7 7 7 7
WGst -- -- -- -- -- -- -- -- -- -- -- -- -- --

Raw TAF
KATL 201123Z 2012/2118 29006KT P6SM BKN035
  FM201600 30007KT P6SM SCT035
  FM210300 27003KT P6SM SCT040 SCT250
  FM211200 VRB03KT 6SM BR SCT250


Raw METAR
KATL 201252Z 25004KT 10SM BKN034 01/M07 A3025 RMK AO2 SLP249 T00111067
KATL 201152Z 23004KT 10SM FEW035 FEW200 02/M08 A3025 RMK AO2 SLP248 T00171083 10028 20006 52001
KATL 201052Z 30006KT 10SM FEW035 01/M10 A3025 RMK AO2 SLP247 T00061100
KATL 200952Z 30006KT 10SM CLR 01/M10 A3025 RMK AO2 SLP247 T00111100

METAR Board
Radar Display
Forecast Discussion

FOR SITUATIONAL AWARENESS. NOT TO BE USED FOR FLIGHT PLANNING PURPOSES.